Time;durP1;ratioP1;P1;durP2;ratioP2;P2;SDS_P1;SDS_P2;PMS_P1;PMS_P2;Temp;Humidity;BMP_temperature;BMP_pressure;BME280_temperature;BME280_humidity;BME280_pressure;Samples;Min_cycle;Max_cycle;Signal;HPM_P1;HPM_P2
2023/09/05 00:00:44;;;;;;;3.05;2.15;;;16.10;99.90;;;;;;5004458;28;20038;-66
2023/09/05 00:03:10;;;;;;;4.53;2.55;;;16.10;99.90;;;;;;5004604;28;20045;-65
2023/09/05 00:05:36;;;;;;;2.40;2.20;;;16.10;99.90;;;;;;5006779;28;20125;-65
2023/09/05 00:08:02;;;;;;;2.30;2.20;;;16.00;99.90;;;;;;5005218;28;20134;-65
2023/09/05 00:10:28;;;;;;;5.00;2.38;;;16.00;99.90;;;;;;5011948;28;20054;-65
2023/09/05 00:12:54;;;;;;;3.00;2.13;;;16.00;99.90;;;;;;5005244;28;20053;-66
2023/09/05 00:15:20;;;;;;;3.38;2.70;;;16.00;99.90;;;;;;5004842;28;20049;-66
2023/09/05 00:17:46;;;;;;;2.33;2.13;;;16.00;99.90;;;;;;5003236;28;20050;-65
2023/09/05 00:20:15;;;;;;;4.75;2.17;;;16.00;99.90;;;;;;5005859;28;20421;-65
2023/09/05 00:22:41;;;;;;;2.58;2.38;;;15.90;99.90;;;;;;5005242;28;20431;-65
2023/09/05 00:25:07;;;;;;;3.58;2.55;;;15.90;99.90;;;;;;5003705;28;20054;-66
2023/09/05 00:27:35;;;;;;;2.70;2.50;;;15.90;99.90;;;;;;5005157;28;20049;-65
2023/09/05 00:30:03;;;;;;;3.90;2.35;;;15.90;99.90;;;;;;5004150;28;20057;-66
2023/09/05 00:32:28;;;;;;;2.22;2.10;;;15.80;99.90;;;;;;5004313;28;20400;-65
2023/09/05 00:34:54;;;;;;;5.78;2.60;;;15.90;99.90;;;;;;5004082;28;20049;-66
2023/09/05 00:37:23;;;;;;;3.47;2.65;;;15.80;99.90;;;;;;5005732;28;20504;-65
2023/09/05 00:39:50;;;;;;;2.45;2.20;;;15.80;99.90;;;;;;5004645;28;20672;-66
2023/09/05 00:42:16;;;;;;;2.50;2.30;;;15.70;99.90;;;;;;5003697;28;20061;-66
2023/09/05 00:44:44;;;;;;;6.28;2.70;;;15.70;99.90;;;;;;5006321;28;20065;-65
2023/09/05 00:47:13;;;;;;;4.03;2.75;;;15.80;99.90;;;;;;5005003;28;20144;-66
2023/09/05 00:49:41;;;;;;;5.27;2.87;;;15.70;99.90;;;;;;5005515;28;20042;-66
2023/09/05 00:52:10;;;;;;;4.63;2.72;;;15.70;99.90;;;;;;5005467;28;20367;-66
2023/09/05 00:54:37;;;;;;;5.60;2.88;;;15.70;99.90;;;;;;5005373;28;20054;-66
2023/09/05 00:57:03;;;;;;;4.90;2.85;;;15.70;99.90;;;;;;5006776;28;20046;-66
2023/09/05 00:59:29;;;;;;;3.05;2.75;;;15.70;99.90;;;;;;5006992;28;20046;-66
2023/09/05 01:01:55;;;;;;;3.42;2.58;;;15.70;99.90;;;;;;5010112;28;20046;-66
2023/09/05 01:04:21;;;;;;;3.67;3.05;;;15.70;99.90;;;;;;5007424;28;20046;-66
2023/09/05 01:07:09;;;;;;;3.90;3.13;;;15.60;99.90;;;;;;5009603;28;20085;-66
2023/09/05 01:09:47;;;;;;;5.47;3.28;;;15.60;99.90;;;;;;5008423;28;20042;-65
2023/09/05 01:12:14;;;;;;;3.58;3.13;;;15.50;99.90;;;;;;5007440;28;20137;-65
2023/09/05 01:14:40;;;;;;;4.57;3.28;;;15.60;99.90;;;;;;5009635;28;20042;-66
2023/09/05 01:17:05;;;;;;;3.67;3.38;;;15.60;99.90;;;;;;5008628;28;20084;-65
2023/09/05 01:19:37;;;;;;;7.68;3.55;;;15.60;99.90;;;;;;5007787;28;20099;-65
2023/09/05 01:22:27;;;;;;;5.03;3.53;;;15.60;99.90;;;;;;5007390;28;20049;-65
2023/09/05 01:24:53;;;;;;;3.53;3.22;;;15.60;99.90;;;;;;5008809;28;20049;-65
2023/09/05 01:27:21;;;;;;;4.47;3.50;;;15.50;99.90;;;;;;5007773;28;20089;-66
2023/09/05 01:29:48;;;;;;;3.85;3.47;;;15.50;99.90;;;;;;5007799;28;20038;-65
2023/09/05 01:32:15;;;;;;;3.50;3.30;;;15.50;99.90;;;;;;5009661;28;20053;-66
2023/09/05 01:34:41;;;;;;;3.78;3.47;;;15.40;99.90;;;;;;5007322;28;20049;-66
2023/09/05 01:37:10;;;;;;;7.35;3.85;;;15.40;99.90;;;;;;5008003;28;20117;-66
2023/09/05 01:39:37;;;;;;;8.02;4.00;;;15.40;99.90;;;;;;5008172;28;20042;-66
2023/09/05 01:42:03;;;;;;;3.70;3.13;;;15.40;99.90;;;;;;5008692;28;20052;-66
2023/09/05 01:44:28;;;;;;;4.00;2.58;;;15.40;99.90;;;;;;5008725;28;20038;-65
2023/09/05 01:46:54;;;;;;;7.68;3.17;;;15.30;99.90;;;;;;5006592;28;20038;-66
2023/09/05 01:49:20;;;;;;;6.03;3.13;;;15.30;99.90;;;;;;5002762;28;20122;-65
2023/09/05 01:51:46;;;;;;;3.28;2.97;;;15.20;99.90;;;;;;5009778;28;20038;-66
2023/09/05 01:54:11;;;;;;;4.15;2.95;;;15.30;99.90;;;;;;5008862;28;20111;-65
2023/09/05 01:56:37;;;;;;;4.30;3.30;;;15.20;99.90;;;;;;4989899;28;20041;-65
2023/09/05 01:59:03;;;;;;;7.88;3.63;;;15.20;99.90;;;;;;5008636;28;20037;-65
2023/09/05 02:01:29;;;;;;;3.72;3.08;;;15.10;99.90;;;;;;5008336;28;20041;-65
2023/09/05 02:03:54;;;;;;;11.68;3.50;;;15.00;99.90;;;;;;5006128;28;20123;-66
2023/09/05 02:06:20;;;;;;;3.33;3.05;;;15.00;99.90;;;;;;5009014;28;20042;-65
2023/09/05 02:08:49;;;;;;;4.57;3.60;;;14.90;99.90;;;;;;5004780;28;20508;-66
2023/09/05 02:11:15;;;;;;;4.95;3.60;;;14.90;99.90;;;;;;5008166;28;20038;-65
2023/09/05 02:13:41;;;;;;;4.97;3.55;;;14.80;99.90;;;;;;5007053;28;20091;-65
2023/09/05 02:16:07;;;;;;;4.18;3.22;;;14.80;99.90;;;;;;5006824;28;20107;-65
2023/09/05 02:18:33;;;;;;;5.32;3.42;;;14.80;99.90;;;;;;5007756;28;20053;-65
2023/09/05 02:21:02;;;;;;;5.30;3.47;;;14.70;99.90;;;;;;5007391;28;20045;-65
2023/09/05 02:23:28;;;;;;;4.75;3.55;;;14.70;99.90;;;;;;5008007;28;20550;-66
2023/09/05 02:26:01;;;;;;;5.10;3.53;;;14.70;99.90;;;;;;5005747;28;20060;-65
2023/09/05 02:28:29;;;;;;;3.88;3.42;;;14.70;99.90;;;;;;5008754;28;20045;-65
2023/09/05 02:30:55;;;;;;;4.78;3.28;;;14.70;99.90;;;;;;5006546;28;20488;-65
2023/09/05 02:33:21;;;;;;;6.15;3.78;;;14.70;99.90;;;;;;5006938;28;20058;-65
2023/09/05 02:35:47;;;;;;;3.85;3.55;;;14.70;99.90;;;;;;5005664;28;20094;-65
2023/09/05 02:38:14;;;;;;;6.22;4.15;;;14.80;99.90;;;;;;5007748;28;20069;-66
2023/09/05 02:40:46;;;;;;;5.13;3.80;;;14.70;99.90;;;;;;5008084;28;20468;-66
2023/09/05 02:43:12;;;;;;;5.78;3.25;;;14.70;99.90;;;;;;4989531;28;20489;-65
2023/09/05 02:45:38;;;;;;;4.32;3.65;;;14.80;99.90;;;;;;5008181;28;20037;-65
2023/09/05 02:48:05;;;;;;;3.72;3.42;;;14.70;99.90;;;;;;5005184;28;20049;-65
2023/09/05 02:50:31;;;;;;;4.45;3.20;;;14.70;99.90;;;;;;5007989;28;20046;-65
2023/09/05 02:52:56;;;;;;;3.63;3.40;;;14.70;99.90;;;;;;5006873;28;20497;-65
2023/09/05 02:55:22;;;;;;;4.63;3.13;;;14.60;99.90;;;;;;5007809;28;20038;-65
2023/09/05 02:57:48;;;;;;;4.03;3.38;;;14.60;99.90;;;;;;5006658;28;20053;-65
2023/09/05 03:00:15;;;;;;;3.28;2.97;;;14.60;99.90;;;;;;5006981;28;20084;-65
2023/09/05 03:02:43;;;;;;;11.43;3.67;;;14.60;99.90;;;;;;5008146;28;20129;-65
2023/09/05 03:05:10;;;;;;;6.55;4.07;;;14.50;99.90;;;;;;5005110;28;20054;-65
2023/09/05 03:07:35;;;;;;;4.40;4.00;;;14.50;99.90;;;;;;5014283;28;20095;-65
2023/09/05 03:10:03;;;;;;;4.25;3.60;;;14.60;99.90;;;;;;5011848;28;20041;-65
2023/09/05 03:12:28;;;;;;;4.32;3.33;;;14.50;99.90;;;;;;5006290;28;20093;-65
2023/09/05 03:14:54;;;;;;;4.05;3.65;;;14.50;99.90;;;;;;5006765;28;20530;-65
2023/09/05 03:17:20;;;;;;;4.15;3.28;;;14.50;99.90;;;;;;5006704;28;20061;-65
2023/09/05 03:19:46;;;;;;;3.63;3.30;;;14.50;99.90;;;;;;5006936;28;20435;-65
2023/09/05 03:22:11;;;;;;;5.88;3.28;;;14.40;99.90;;;;;;5006245;28;20053;-65
2023/09/05 03:24:37;;;;;;;4.78;3.63;;;14.40;99.90;;;;;;5006348;28;20042;-65
2023/09/05 03:27:04;;;;;;;7.03;4.05;;;14.30;99.90;;;;;;5004394;28;20066;-65
2023/09/05 03:29:30;;;;;;;6.25;3.80;;;14.30;99.90;;;;;;5006940;28;20173;-65
2023/09/05 03:31:56;;;;;;;3.95;3.45;;;14.30;99.90;;;;;;5005166;28;20496;-65
2023/09/05 03:34:22;;;;;;;5.05;3.67;;;14.20;99.90;;;;;;5006700;28;20042;-65
2023/09/05 03:36:49;;;;;;;3.20;2.90;;;14.20;99.90;;;;;;5006902;28;20034;-65
2023/09/05 03:39:15;;;;;;;4.22;3.65;;;14.20;99.90;;;;;;5005002;28;20088;-65
2023/09/05 03:41:41;;;;;;;4.32;3.92;;;14.20;99.90;;;;;;5005410;28;20045;-65
2023/09/05 03:44:06;;;;;;;3.28;3.08;;;14.20;99.90;;;;;;5005387;28;20045;-65
2023/09/05 03:46:32;;;;;;;4.30;3.30;;;14.10;99.90;;;;;;5006424;28;21546;-65
2023/09/05 03:48:58;;;;;;;5.70;3.70;;;14.10;99.90;;;;;;5004136;28;20054;-65
2023/09/05 03:51:27;;;;;;;4.30;3.50;;;14.10;99.90;;;;;;5004947;28;20042;-65
2023/09/05 03:53:53;;;;;;;4.60;4.20;;;14.00;99.90;;;;;;5005115;28;20053;-65
2023/09/05 03:56:21;;;;;;;5.97;4.30;;;14.00;99.90;;;;;;5018502;28;20053;-65
2023/09/05 03:58:47;;;;;;;7.50;3.67;;;14.00;99.90;;;;;;5006885;28;20084;-65
2023/09/05 04:01:16;;;;;;;4.70;3.92;;;14.00;99.90;;;;;;5005081;28;20077;-65
2023/09/05 04:03:42;;;;;;;7.72;3.97;;;14.00;99.90;;;;;;5005429;28;20050;-65
2023/09/05 04:06:08;;;;;;;9.75;4.88;;;14.10;99.90;;;;;;5005371;28;20056;-65
2023/09/05 04:08:34;;;;;;;11.63;5.75;;;14.10;99.90;;;;;;5006904;28;20034;-65
2023/09/05 04:11:01;;;;;;;6.13;4.75;;;14.20;99.90;;;;;;5003889;28;20034;-65
2023/09/05 04:13:30;;;;;;;4.70;4.32;;;14.20;99.90;;;;;;5005067;28;20054;-65
2023/09/05 04:16:00;;;;;;;4.82;4.10;;;14.20;99.90;;;;;;5005876;28;20045;-65
2023/09/05 04:18:26;;;;;;;4.38;3.92;;;14.20;99.90;;;;;;5003953;28;20054;-65
2023/09/05 04:20:58;;;;;;;4.40;4.00;;;14.10;99.90;;;;;;5008003;28;20045;-65
2023/09/05 04:23:24;;;;;;;6.80;4.60;;;14.10;99.90;;;;;;5017236;28;20054;-65
2023/09/05 04:26:01;;;;;;;6.00;4.95;;;14.00;99.90;;;;;;5006580;28;20049;-65
2023/09/05 04:28:27;;;;;;;8.23;4.78;;;14.00;99.90;;;;;;4988159;28;20141;-65
2023/09/05 04:30:55;;;;;;;5.80;4.63;;;14.00;99.90;;;;;;5005067;28;20472;-66
2023/09/05 04:33:23;;;;;;;7.53;4.95;;;14.00;99.90;;;;;;5005133;28;20468;-65
2023/09/05 04:35:49;;;;;;;5.80;5.03;;;14.00;99.90;;;;;;5005334;28;20080;-65
2023/09/05 04:38:15;;;;;;;7.45;5.30;;;14.00;99.90;;;;;;5006503;28;20473;-65
2023/09/05 04:40:40;;;;;;;7.30;4.35;;;14.10;99.90;;;;;;5004572;28;20633;-65
2023/09/05 04:43:06;;;;;;;4.30;3.80;;;14.00;99.90;;;;;;5006435;28;20133;-65
2023/09/05 04:45:32;;;;;;;6.80;4.22;;;14.00;99.90;;;;;;5003839;28;20120;-65
2023/09/05 04:47:58;;;;;;;4.03;3.63;;;13.90;99.90;;;;;;5006378;28;20117;-65
2023/09/05 04:50:24;;;;;;;4.90;4.50;;;13.80;99.90;;;;;;5004775;28;20193;-65
2023/09/05 04:52:50;;;;;;;4.43;4.10;;;13.70;99.90;;;;;;5003702;28;20057;-65
2023/09/05 04:55:16;;;;;;;5.07;4.57;;;13.70;99.90;;;;;;5004520;28;20049;-65
2023/09/05 04:57:42;;;;;;;5.82;5.22;;;13.70;99.90;;;;;;5003175;28;20558;-65
2023/09/05 05:00:10;;;;;;;5.68;4.35;;;13.70;99.90;;;;;;5004805;28;20069;-65
2023/09/05 05:02:35;;;;;;;4.35;3.95;;;13.60;99.90;;;;;;5004687;28;20117;-65
2023/09/05 05:05:01;;;;;;;6.75;4.47;;;13.60;99.90;;;;;;5004605;28;20494;-65
2023/09/05 05:07:27;;;;;;;5.40;4.90;;;13.50;99.90;;;;;;5005463;28;20050;-65
2023/09/05 05:09:52;;;;;;;6.07;5.45;;;13.60;99.90;;;;;;5004876;28;20083;-65
2023/09/05 05:12:18;;;;;;;10.38;4.63;;;13.60;99.90;;;;;;5004213;28;20053;-65
2023/09/05 05:14:44;;;;;;;9.43;4.63;;;13.60;99.90;;;;;;5005062;28;20038;-65
2023/09/05 05:17:12;;;;;;;6.75;4.78;;;13.60;99.90;;;;;;5005528;28;20060;-65
2023/09/05 05:19:39;;;;;;;6.63;4.20;;;13.70;99.90;;;;;;5004581;28;20419;-65
2023/09/05 05:22:05;;;;;;;4.40;4.10;;;13.70;99.90;;;;;;5005635;28;20769;-65
2023/09/05 05:24:31;;;;;;;5.40;4.90;;;13.70;99.90;;;;;;5003582;28;20050;-65
2023/09/05 05:26:57;;;;;;;10.63;5.70;;;13.80;99.90;;;;;;5005623;28;20048;-65
2023/09/05 05:29:23;;;;;;;10.45;5.13;;;13.70;99.90;;;;;;5003468;28;20038;-65
2023/09/05 05:31:49;;;;;;;5.47;4.97;;;13.80;99.90;;;;;;5004809;28;20527;-65
2023/09/05 05:34:15;;;;;;;9.32;5.28;;;13.80;99.90;;;;;;5005818;28;20046;-65
2023/09/05 05:36:41;;;;;;;7.72;5.18;;;13.90;99.90;;;;;;5004006;28;20070;-65
2023/09/05 05:39:07;;;;;;;11.52;5.32;;;13.90;99.90;;;;;;5005508;28;20352;-65
2023/09/05 05:41:34;;;;;;;6.85;5.45;;;13.90;99.90;;;;;;5004459;28;20048;-65
2023/09/05 05:44:00;;;;;;;5.25;4.75;;;13.90;99.90;;;;;;5007139;28;20104;-65
2023/09/05 05:46:26;;;;;;;6.18;5.30;;;14.00;99.90;;;;;;5006671;28;20050;-65
2023/09/05 05:48:51;;;;;;;5.80;4.90;;;14.10;99.90;;;;;;5008516;28;20030;-65
2023/09/05 05:51:17;;;;;;;5.20;4.22;;;14.10;99.90;;;;;;5008726;28;20120;-65
2023/09/05 05:53:44;;;;;;;4.90;4.43;;;14.10;99.90;;;;;;4990227;28;20048;-65
2023/09/05 05:56:11;;;;;;;10.55;5.18;;;14.20;99.90;;;;;;5021163;28;20398;-65
2023/09/05 05:58:36;;;;;;;6.65;5.47;;;14.30;99.90;;;;;;5009571;28;20061;-65
2023/09/05 06:01:03;;;;;;;7.25;4.88;;;14.30;99.90;;;;;;5016628;28;20238;-65
2023/09/05 06:03:29;;;;;;;9.82;5.53;;;14.40;99.90;;;;;;5009124;28;20038;-65
2023/09/05 06:05:55;;;;;;;7.53;6.22;;;14.40;99.90;;;;;;5025444;28;20052;-65
2023/09/05 06:08:21;;;;;;;5.95;5.20;;;14.60;99.90;;;;;;5015127;28;20034;-65
2023/09/05 06:10:48;;;;;;;6.05;5.45;;;14.60;99.90;;;;;;5011603;28;20034;-65
2023/09/05 06:13:13;;;;;;;9.02;5.85;;;14.80;99.90;;;;;;5006692;28;20046;-65
2023/09/05 06:15:40;;;;;;;5.90;5.35;;;14.80;99.90;;;;;;5012395;28;20050;-65
2023/09/05 06:18:07;;;;;;;6.53;5.55;;;14.90;99.90;;;;;;4997222;28;20049;-65
2023/09/05 06:20:34;;;;;;;6.18;5.15;;;14.90;99.90;;;;;;5011327;28;20452;-65
2023/09/05 06:23:01;;;;;;;5.80;4.82;;;15.00;99.90;;;;;;5016397;28;20049;-65
2023/09/05 06:25:27;;;;;;;14.13;5.78;;;15.10;99.90;;;;;;5011501;28;20431;-65
2023/09/05 06:27:53;;;;;;;12.18;6.45;;;15.20;99.90;;;;;;5013638;28;20041;-65
2023/09/05 06:30:19;;;;;;;6.05;5.43;;;15.20;99.90;;;;;;5012292;28;20040;-65
2023/09/05 06:32:45;;;;;;;6.53;5.45;;;15.30;99.90;;;;;;5013000;28;20038;-65
2023/09/05 06:35:10;;;;;;;8.60;6.07;;;15.50;99.90;;;;;;5020287;28;20056;-65
2023/09/05 06:37:36;;;;;;;6.75;6.03;;;15.60;99.90;;;;;;5011991;28;20104;-65
2023/09/05 06:40:09;;;;;;;7.82;5.78;;;15.70;99.90;;;;;;5016332;28;20041;-65
2023/09/05 06:42:39;;;;;;;7.72;6.45;;;15.90;99.90;;;;;;5009937;28;20038;-65
2023/09/05 06:45:05;;;;;;;;;;;16.10;99.90;;;;;;5010705;28;20121;-64
2023/09/05 06:47:31;;;;;;;11.77;6.20;;;16.50;99.90;;;;;;5006710;28;20004;-65
2023/09/05 06:49:56;;;;;;;7.28;6.03;;;16.60;99.90;;;;;;5018501;28;20571;-65
2023/09/05 06:52:22;;;;;;;7.18;5.32;;;16.80;99.90;;;;;;5008826;28;20038;-65
2023/09/05 06:54:48;;;;;;;6.65;5.60;;;16.90;99.90;;;;;;5009032;28;20400;-65
2023/09/05 06:57:15;;;;;;;10.10;5.43;;;17.00;99.90;;;;;;5007720;28;20057;-65
2023/09/05 06:59:41;;;;;;;6.10;5.50;;;17.20;99.90;;;;;;5010065;28;20053;-65
2023/09/05 07:02:07;;;;;;;11.02;5.95;;;17.30;99.90;;;;;;5011925;28;20049;-65
2023/09/05 07:04:36;;;;;;;6.43;5.68;;;17.50;99.90;;;;;;5009945;28;20100;-65
2023/09/05 07:07:03;;;;;;;7.43;5.55;;;17.70;99.90;;;;;;5011028;28;20049;-65
2023/09/05 07:09:30;;;;;;;6.05;5.45;;;17.90;99.90;;;;;;5010461;28;20038;-65
2023/09/05 07:11:56;;;;;;;5.38;4.93;;;18.20;99.90;;;;;;4988449;28;20156;-65
2023/09/05 07:14:21;;;;;;;6.32;4.80;;;18.40;99.90;;;;;;5004721;28;20046;-65
2023/09/05 07:16:47;;;;;;;5.53;5.00;;;18.50;99.90;;;;;;4996246;28;20084;-65
2023/09/05 07:19:13;;;;;;;5.50;4.95;;;18.80;99.90;;;;;;5007406;28;20057;-65
2023/09/05 07:21:40;;;;;;;5.60;4.55;;;19.10;99.90;;;;;;5006242;28;20052;-64
2023/09/05 07:24:13;;;;;;;5.95;4.93;;;19.30;99.90;;;;;;5006311;28;20112;-64
2023/09/05 07:26:39;;;;;;;4.95;4.45;;;19.40;99.90;;;;;;5006856;28;20044;-65
2023/09/05 07:29:13;;;;;;;9.48;5.00;;;19.60;99.90;;;;;;5008336;28;20046;-65
2023/09/05 07:31:41;;;;;;;6.07;4.45;;;19.80;99.90;;;;;;5009163;28;20041;-65
2023/09/05 07:34:07;;;;;;;6.82;4.95;;;20.00;99.90;;;;;;4999879;28;20045;-65
2023/09/05 07:36:34;;;;;;;5.55;4.95;;;20.10;99.90;;;;;;5008682;28;20057;-65
2023/09/05 07:39:04;;;;;;;7.93;5.38;;;20.30;99.90;;;;;;5014160;28;20050;-65
2023/09/05 07:41:32;;;;;;;7.85;4.88;;;20.40;99.90;;;;;;5012316;28;20591;-65
2023/09/05 07:43:58;;;;;;;6.05;4.80;;;20.70;99.90;;;;;;5006913;28;20050;-65
2023/09/05 07:46:24;;;;;;;5.32;4.93;;;20.80;99.90;;;;;;5008329;28;20053;-65
2023/09/05 07:48:52;;;;;;;5.40;4.90;;;20.90;99.90;;;;;;4995661;28;20037;-65
2023/09/05 07:51:22;;;;;;;11.77;4.85;;;21.10;99.90;;;;;;5006578;28;20128;-64
2023/09/05 07:54:06;;;;;;;5.78;4.68;;;21.20;99.90;;;;;;5005299;28;20128;-64
2023/09/05 07:56:33;;;;;;;6.25;5.45;;;21.30;99.90;;;;;;4990142;28;20050;-65
2023/09/05 07:58:59;;;;;;;9.02;4.88;;;21.40;99.90;;;;;;5006336;28;20050;-65
2023/09/05 08:01:25;;;;;;;8.38;4.88;;;21.50;99.90;;;;;;5006108;28;20050;-64
2023/09/05 08:03:52;;;;;;;7.03;5.00;;;21.60;99.90;;;;;;5004896;28;20153;-65
2023/09/05 08:06:17;;;;;;;6.82;5.20;;;21.70;99.90;;;;;;4993617;28;20614;-65
2023/09/05 08:08:43;;;;;;;7.53;4.75;;;21.80;99.90;;;;;;5016363;28;20045;-65
2023/09/05 08:11:09;;;;;;;9.23;5.18;;;21.80;99.90;;;;;;5005476;28;20050;-65
2023/09/05 08:13:35;;;;;;;8.10;4.70;;;21.90;99.90;;;;;;5005293;28;20057;-65
2023/09/05 08:16:02;;;;;;;5.90;4.78;;;22.00;99.90;;;;;;5005831;28;20034;-64
2023/09/05 08:18:28;;;;;;;6.30;4.30;;;22.00;98.80;;;;;;5005917;28;20192;-65
2023/09/05 08:20:56;;;;;;;5.72;5.15;;;22.10;99.90;;;;;;5004017;28;20133;-65
2023/09/05 08:23:22;;;;;;;5.88;4.63;;;22.10;99.90;;;;;;5005586;28;20616;-65
2023/09/05 08:25:51;;;;;;;5.90;4.72;;;22.20;97.30;;;;;;5004529;28;20081;-65
2023/09/05 08:28:19;;;;;;;5.90;4.13;;;22.10;97.60;;;;;;5006192;28;20527;-65
2023/09/05 08:30:45;;;;;;;8.50;4.90;;;22.30;99.90;;;;;;5003643;28;20044;-65
2023/09/05 08:33:11;;;;;;;7.80;4.65;;;22.40;98.60;;;;;;5020136;28;20098;-65
2023/09/05 08:35:37;;;;;;;4.80;4.22;;;22.50;95.40;;;;;;5005775;28;20082;-65
2023/09/05 08:38:05;;;;;;;8.52;4.60;;;22.60;99.60;;;;;;5003881;28;20073;-65
2023/09/05 08:40:35;;;;;;;5.82;4.03;;;22.70;97.20;;;;;;5005753;28;20583;-65
2023/09/05 08:43:02;;;;;;;5.70;4.38;;;22.70;96.20;;;;;;4986823;28;20090;-65
2023/09/05 08:45:31;;;;;;;9.70;4.13;;;22.80;96.60;;;;;;5006299;28;20127;-65
2023/09/05 08:47:57;;;;;;;5.57;4.25;;;23.00;96.20;;;;;;5005429;28;20512;-65
2023/09/05 08:50:26;;;;;;;5.85;4.38;;;23.00;96.00;;;;;;4993799;28;20176;-65
2023/09/05 08:52:55;;;;;;;4.78;3.75;;;23.20;94.30;;;;;;4998211;28;20632;-65
2023/09/05 08:55:22;;;;;;;7.20;3.90;;;23.20;83.60;;;;;;4996069;28;20051;-65
2023/09/05 08:57:52;;;;;;;5.13;3.85;;;23.40;87.40;;;;;;4987407;28;20427;-65
2023/09/05 09:00:18;;;;;;;5.88;3.90;;;23.40;81.90;;;;;;4989072;28;20045;-65
2023/09/05 09:02:44;;;;;;;4.28;3.25;;;23.30;84.90;;;;;;4989449;28;20048;-65
2023/09/05 09:05:09;;;;;;;4.57;3.20;;;23.40;82.00;;;;;;5008839;28;20053;-65
2023/09/05 09:07:35;;;;;;;4.65;4.13;;;23.50;83.90;;;;;;4977653;28;20050;-65
2023/09/05 09:10:17;;;;;;;8.02;3.55;;;23.60;78.40;;;;;;4989676;28;20045;-65
2023/09/05 09:12:43;;;;;;;4.00;3.40;;;23.70;85.10;;;;;;5003774;28;20057;-66
2023/09/05 09:15:10;;;;;;;10.50;3.47;;;23.70;83.60;;;;;;5006156;28;20053;-65
2023/09/05 09:17:36;;;;;;;6.65;3.50;;;23.70;84.30;;;;;;5002262;28;20046;-65
2023/09/05 09:20:06;;;;;;;3.28;2.97;;;23.80;79.40;;;;;;5007447;28;20060;-65
2023/09/05 09:22:32;;;;;;;4.15;3.53;;;23.80;77.40;;;;;;5007670;28;20053;-66
2023/09/05 09:24:57;;;;;;;3.28;3.08;;;23.90;72.60;;;;;;5007910;28;20096;-65
2023/09/05 09:27:23;;;;;;;4.00;3.13;;;24.10;63.10;;;;;;5007884;28;20479;-65
2023/09/05 09:29:55;;;;;;;3.58;3.17;;;24.20;57.70;;;;;;4986916;28;20053;-65
2023/09/05 09:32:22;;;;;;;3.88;2.80;;;24.20;41.60;;;;;;5018132;28;20038;-65
2023/09/05 09:34:50;;;;;;;3.92;2.88;;;24.10;38.10;;;;;;5007654;28;20445;-65
2023/09/05 09:37:25;;;;;;;2.85;2.67;;;24.10;40.30;;;;;;5007931;28;20046;-65
2023/09/05 09:40:02;;;;;;;5.78;3.30;;;24.30;62.40;;;;;;5007747;28;20038;-65
2023/09/05 09:42:28;;;;;;;6.95;3.05;;;24.30;52.70;;;;;;5006894;28;20057;-66
2023/09/05 09:44:54;;;;;;;3.35;3.10;;;24.40;47.90;;;;;;5007219;28;20044;-65
2023/09/05 09:47:21;;;;;;;4.43;3.08;;;24.30;27.40;;;;;;5004466;28;20404;-65
2023/09/05 09:49:51;;;;;;;3.17;2.88;;;24.20;52.70;;;;;;5007248;28;20050;-66
2023/09/05 09:52:20;;;;;;;3.10;2.90;;;24.30;48.60;;;;;;5006076;28;20050;-65
2023/09/05 09:54:47;;;;;;;6.00;2.80;;;24.20;42.30;;;;;;5007030;28;20049;-65
2023/09/05 09:57:30;;;;;;;6.40;2.50;;;24.30;49.30;;;;;;5006229;28;20156;-65
2023/09/05 10:00:00;;;;;;;7.18;2.72;;;24.30;43.90;;;;;;5004578;28;20062;-65
2023/09/05 10:02:28;;;;;;;2.80;2.63;;;24.30;34.80;;;;;;5008605;28;20063;-65
2023/09/05 10:04:56;;;;;;;5.93;3.70;;;24.50;40.90;;;;;;5004984;28;20062;-66
2023/09/05 10:07:23;;;;;;;3.28;3.00;;;24.60;54.00;;;;;;5014997;28;20531;-65
2023/09/05 10:09:51;;;;;;;3.83;2.75;;;24.70;62.40;;;;;;5009857;28;20042;-65
2023/09/05 10:12:20;;;;;;;4.72;3.20;;;24.80;48.40;;;;;;5007033;28;20046;-66
2023/09/05 10:14:48;;;;;;;3.90;2.83;;;24.80;50.80;;;;;;5025411;28;20523;-66
2023/09/05 10:17:15;;;;;;;10.55;3.53;;;24.80;45.10;;;;;;5010505;28;20408;-65
2023/09/05 10:19:44;;;;;;;3.78;3.17;;;24.80;41.10;;;;;;5021894;28;20076;-65
2023/09/05 10:22:14;;;;;;;4.67;3.83;;;24.90;54.30;;;;;;5016940;28;20046;-65
2023/09/05 10:24:40;;;;;;;8.35;2.90;;;24.90;54.90;;;;;;5018977;28;20836;-65
2023/09/05 10:27:06;;;;;;;6.65;3.28;;;25.00;56.50;;;;;;5012461;28;20053;-66
2023/09/05 10:29:43;;;;;;;12.52;3.53;;;25.00;40.10;;;;;;5013682;28;20520;-65
2023/09/05 10:32:19;;;;;;;5.07;3.30;;;24.90;46.60;;;;;;4992968;28;20133;-66
2023/09/05 10:34:48;;;;;;;7.63;3.22;;;24.90;38.80;;;;;;5011158;28;20179;-65
2023/09/05 10:37:15;;;;;;;;;;;24.90;46.30;;;;;;5009991;28;20698;-65
2023/09/05 10:39:45;;;;;;;3.33;3.03;;;25.00;48.80;;;;;;5007708;28;19960;-65
2023/09/05 10:42:15;;;;;;;7.45;2.90;;;24.90;28.80;;;;;;5010021;28;20508;-65
2023/09/05 10:44:42;;;;;;;5.72;2.88;;;24.90;42.20;;;;;;5011395;28;20484;-65
2023/09/05 10:47:29;;;;;;;5.25;2.60;;;25.00;42.60;;;;;;5009208;28;20050;-65
2023/09/05 10:50:06;;;;;;;2.22;2.13;;;25.00;42.80;;;;;;5011071;28;20054;-65
2023/09/05 10:52:33;;;;;;;3.45;2.70;;;25.00;30.00;;;;;;4998094;28;20435;-65
2023/09/05 10:55:32;;;;;;;2.50;2.30;;;25.00;22.20;;;;;;5011861;28;20050;-65
2023/09/05 10:57:59;;;;;;;7.47;2.28;;;25.00;27.70;;;;;;5002270;28;20050;-65
2023/09/05 11:00:28;;;;;;;2.63;2.20;;;25.00;28.10;;;;;;5010331;28;20565;-66
2023/09/05 11:03:08;;;;;;;8.50;2.50;;;25.10;21.50;;;;;;5008604;28;20383;-66
2023/09/05 11:05:34;;;;;;;3.85;2.22;;;25.20;24.60;;;;;;5011276;28;20045;-65
2023/09/05 11:08:01;;;;;;;6.28;2.42;;;25.10;10.30;;;;;;5008438;28;20053;-65
2023/09/05 11:10:29;;;;;;;2.25;2.03;;;25.20;28.30;;;;;;5006191;28;20532;-65
2023/09/05 11:12:56;;;;;;;2.80;2.50;;;25.20;22.30;;;;;;5006864;28;20054;-65
2023/09/05 11:15:29;;;;;;;3.05;2.00;;;25.20;23.20;;;;;;5007319;28;20116;-65
2023/09/05 11:18:04;;;;;;;2.30;2.20;;;25.30;27.60;;;;;;5005439;28;20088;-65
2023/09/05 11:20:43;;;;;;;2.50;2.30;;;25.20;14.10;;;;;;5007416;28;20100;-65
2023/09/05 11:23:28;;;;;;;2.72;2.45;;;25.10;11.70;;;;;;5004573;28;20593;-65
2023/09/05 11:26:10;;;;;;;4.90;2.78;;;25.10;19.70;;;;;;5006442;28;20500;-65
2023/09/05 11:28:37;;;;;;;7.32;2.42;;;25.10;26.20;;;;;;5007324;28;20064;-65
2023/09/05 11:31:04;;;;;;;2.22;1.80;;;25.30;32.80;;;;;;5005173;28;20046;-65
2023/09/05 11:33:29;;;;;;;4.05;1.80;;;25.20;19.60;;;;;;5006424;28;20419;-65
2023/09/05 11:35:55;;;;;;;1.65;1.55;;;25.30;21.30;;;;;;5003942;28;20054;-65
2023/09/05 11:38:22;;;;;;;3.30;1.85;;;25.30;20.10;;;;;;5012386;28;20129;-65
2023/09/05 11:40:55;;;;;;;1.63;1.50;;;25.40;19.70;;;;;;5011291;28;20081;-65
2023/09/05 11:43:22;;;;;;;5.85;1.73;;;25.50;14.30;;;;;;5020219;28;20050;-66
2023/09/05 11:45:52;;;;;;;1.55;1.38;;;25.60;16.80;;;;;;5020633;28;20049;-66
2023/09/05 11:48:19;;;;;;;1.95;1.58;;;25.60;3.20;;;;;;5017338;28;20499;-65
2023/09/05 11:50:46;;;;;;;1.48;1.38;;;25.60;1.70;;;;;;5016253;28;20042;-65
2023/09/05 11:53:15;;;;;;;2.58;1.58;;;25.60;12.10;;;;;;5010477;28;20041;-66
2023/09/05 11:55:42;;;;;;;;;;;25.50;4.20;;;;;;5011123;28;20492;-65
2023/09/05 11:58:09;;;;;;;2.05;1.50;;;25.50;17.50;;;;;;5009608;28;19932;-65
2023/09/05 12:00:42;;;;;;;1.73;1.60;;;25.40;9.10;;;;;;5009302;28;20045;-65
2023/09/05 12:03:09;;;;;;;2.20;1.52;;;25.40;12.10;;;;;;5007988;28;20062;-65
2023/09/05 12:05:38;;;;;;;1.73;1.35;;;25.40;13.60;;;;;;5011365;28;20188;-65
2023/09/05 12:08:07;;;;;;;2.78;1.58;;;25.40;2.10;;;;;;5006237;28;20504;-64
2023/09/05 12:10:50;;;;;;;2.97;2.00;;;25.30;1.00;;;;;;4987962;28;20173;-65
2023/09/05 12:13:15;;;;;;;1.45;1.30;;;25.30;1.00;;;;;;5003580;28;20500;-65
2023/09/05 12:15:44;;;;;;;1.77;1.30;;;25.30;1.00;;;;;;5002431;28;20049;-65
2023/09/05 12:18:15;;;;;;;;;;;25.40;1.00;;;;;;5003894;28;20069;-65
2023/09/05 12:20:41;;;;;;;1.30;1.20;;;25.40;1.00;;;;;;5004617;28;19929;-65
2023/09/05 12:23:07;;;;;;;1.08;0.98;;;25.50;1.00;;;;;;5001830;28;20507;-64
2023/09/05 12:25:32;;;;;;;1.42;1.10;;;25.50;1.00;;;;;;5003862;28;20053;-65
2023/09/05 12:28:20;;;;;;;1.27;1.27;;;25.60;1.00;;;;;;5005174;28;20061;-65
2023/09/05 12:30:49;;;;;;;1.52;1.15;;;25.60;1.00;;;;;;5005749;28;20045;-65
2023/09/05 12:33:16;;;;;;;3.97;1.48;;;25.70;1.00;;;;;;5004214;28;20439;-64
2023/09/05 12:35:43;;;;;;;3.58;1.33;;;25.80;1.00;;;;;;5005444;28;20049;-65
2023/09/05 12:38:12;;;;;;;1.27;1.10;;;25.90;1.00;;;;;;5004709;28;20176;-65
2023/09/05 12:40:39;;;;;;;3.90;1.00;;;26.00;1.00;;;;;;5005353;28;20046;-65
2023/09/05 12:43:05;;;;;;;1.65;1.00;;;26.00;1.00;;;;;;5005615;28;20058;-65
2023/09/05 12:45:35;;;;;;;3.00;1.20;;;26.10;1.00;;;;;;5005626;28;20046;-65
2023/09/05 12:48:02;;;;;;;1.23;1.13;;;26.10;1.00;;;;;;5005569;28;20046;-65
2023/09/05 12:50:36;;;;;;;3.85;1.00;;;26.30;1.00;;;;;;5006013;28;20042;-64